sensor_id;sensor_type;location;lat;lon;timestamp;pressure;altitude;pressure_sealevel;temperature;humidity
69524;BME280;56723;42.694;23.286;2023-02-28T00:01:13;95509.03;;;5.73;100.00
69524;BME280;56723;42.694;23.286;2023-02-28T00:03:41;95511.47;;;5.75;100.00
69524;BME280;56723;42.694;23.286;2023-02-28T00:06:08;95512.66;;;5.71;100.00
69524;BME280;56723;42.694;23.286;2023-02-28T00:08:39;95522.53;;;5.75;100.00
69524;BME280;56723;42.694;23.286;2023-02-28T00:11:08;95526.09;;;5.74;100.00
69524;BME280;56723;42.694;23.286;2023-02-28T00:13:38;95518.22;;;5.76;100.00
69524;BME280;56723;42.694;23.286;2023-02-28T00:16:07;95525.28;;;5.74;100.00
69524;BME280;56723;42.694;23.286;2023-02-28T00:18:36;95522.81;;;5.72;100.00
69524;BME280;56723;42.694;23.286;2023-02-28T00:21:04;95529.59;;;5.73;100.00
69524;BME280;56723;42.694;23.286;2023-02-28T02:36:49;95532.50;;;4.03;100.00
69524;BME280;56723;42.694;23.286;2023-02-28T02:39:47;95535.78;;;4.05;100.00
69524;BME280;56723;42.694;23.286;2023-02-28T02:42:30;95533.94;;;4.07;100.00
69524;BME280;56723;42.694;23.286;2023-02-28T02:45:05;95535.31;;;4.11;100.00
69524;BME280;56723;42.694;23.286;2023-02-28T02:47:33;95539.63;;;4.10;100.00
69524;BME280;56723;42.694;23.286;2023-02-28T02:50:05;95541.84;;;4.15;100.00
69524;BME280;56723;42.694;23.286;2023-02-28T02:52:41;95533.00;;;4.19;100.00
69524;BME280;56723;42.694;23.286;2023-02-28T06:25:45;95660.06;;;4.47;100.00
69524;BME280;56723;42.694;23.286;2023-02-28T06:28:12;95665.44;;;4.55;100.00
69524;BME280;56723;42.694;23.286;2023-02-28T06:30:39;95660.81;;;4.60;100.00
69524;BME280;56723;42.694;23.286;2023-02-28T06:33:06;95674.69;;;4.69;100.00
69524;BME280;56723;42.694;23.286;2023-02-28T06:35:32;95679.06;;;4.79;100.00
69524;BME280;56723;42.694;23.286;2023-02-28T06:37:59;95678.34;;;4.88;100.00
69524;BME280;56723;42.694;23.286;2023-02-28T06:40:26;95679.88;;;4.91;100.00
69524;BME280;56723;42.694;23.286;2023-02-28T06:42:53;95678.72;;;4.95;100.00
69524;BME280;56723;42.694;23.286;2023-02-28T06:45:20;95681.06;;;4.98;100.00
69524;BME280;56723;42.694;23.286;2023-02-28T06:47:47;95673.59;;;5.06;100.00
69524;BME280;56723;42.694;23.286;2023-02-28T06:50:18;95679.09;;;5.13;100.00
69524;BME280;56723;42.694;23.286;2023-02-28T06:52:47;95675.94;;;5.20;100.00
69524;BME280;56723;42.694;23.286;2023-02-28T06:55:14;95683.41;;;5.23;100.00
69524;BME280;56723;42.694;23.286;2023-02-28T08:03:11;95675.22;;;5.41;100.00
69524;BME280;56723;42.694;23.286;2023-02-28T08:05:39;95675.47;;;5.49;100.00
69524;BME280;56723;42.694;23.286;2023-02-28T08:08:07;95673.09;;;5.57;100.00
69524;BME280;56723;42.694;23.286;2023-02-28T08:10:34;95668.91;;;5.67;100.00
69524;BME280;56723;42.694;23.286;2023-02-28T08:13:01;95675.78;;;5.78;100.00
69524;BME280;56723;42.694;23.286;2023-02-28T08:15:28;95679.19;;;5.89;100.00
69524;BME280;56723;42.694;23.286;2023-02-28T08:17:55;95685.22;;;6.00;100.00
69524;BME280;56723;42.694;23.286;2023-02-28T08:20:24;95673.41;;;6.08;100.00
69524;BME280;56723;42.694;23.286;2023-02-28T08:22:51;95683.53;;;6.21;100.00
69524;BME280;56723;42.694;23.286;2023-02-28T08:25:18;95686.56;;;6.26;100.00
69524;BME280;56723;42.694;23.286;2023-02-28T08:27:45;95682.00;;;6.30;100.00
69524;BME280;56723;42.694;23.286;2023-02-28T08:30:14;95683.00;;;6.38;100.00
69524;BME280;56723;42.694;23.286;2023-02-28T08:32:41;95678.09;;;6.35;100.00
69524;BME280;56723;42.694;23.286;2023-02-28T08:35:08;95688.25;;;6.48;100.00
69524;BME280;56723;42.694;23.286;2023-02-28T08:37:38;95675.84;;;6.42;100.00
69524;BME280;56723;42.694;23.286;2023-02-28T08:40:05;95683.34;;;6.45;100.00
69524;BME280;56723;42.694;23.286;2023-02-28T08:42:33;95682.63;;;6.43;100.00
69524;BME280;56723;42.694;23.286;2023-02-28T08:44:59;95685.34;;;6.41;100.00
69524;BME280;56723;42.694;23.286;2023-02-28T08:47:27;95684.03;;;6.47;100.00
69524;BME280;56723;42.694;23.286;2023-02-28T08:49:54;95682.69;;;6.52;100.00
69524;BME280;56723;42.694;23.286;2023-02-28T08:52:20;95678.25;;;6.54;100.00
69524;BME280;56723;42.694;23.286;2023-02-28T08:54:47;95687.38;;;6.58;100.00
69524;BME280;56723;42.694;23.286;2023-02-28T08:57:14;95692.50;;;6.58;100.00
69524;BME280;56723;42.694;23.286;2023-02-28T08:59:41;95695.22;;;6.57;100.00
69524;BME280;56723;42.694;23.286;2023-02-28T09:02:12;95697.22;;;6.53;100.00
69524;BME280;56723;42.694;23.286;2023-02-28T09:32:10;95679.59;;;6.38;100.00
69524;BME280;56723;42.694;23.286;2023-02-28T09:34:37;95679.00;;;6.45;100.00
69524;BME280;56723;42.694;23.286;2023-02-28T09:37:04;95680.13;;;6.52;100.00
69524;BME280;56723;42.694;23.286;2023-02-28T09:39:31;95683.28;;;6.56;100.00
69524;BME280;56723;42.694;23.286;2023-02-28T09:41:58;95678.69;;;6.59;100.00
69524;BME280;56723;42.694;23.286;2023-02-28T09:44:30;95679.16;;;6.65;100.00
69524;BME280;56723;42.694;23.286;2023-02-28T09:47:03;95677.94;;;6.69;100.00
69524;BME280;56723;42.694;23.286;2023-02-28T09:49:37;95675.56;;;6.77;100.00
69524;BME280;56723;42.694;23.286;2023-02-28T09:52:10;95671.84;;;6.90;100.00
69524;BME280;56723;42.694;23.286;2023-02-28T09:54:38;95671.66;;;7.03;100.00
69524;BME280;56723;42.694;23.286;2023-02-28T09:57:08;95663.59;;;7.17;100.00
69524;BME280;56723;42.694;23.286;2023-02-28T09:59:39;95665.81;;;7.32;100.00
69524;BME280;56723;42.694;23.286;2023-02-28T10:04:58;95655.69;;;7.40;100.00
69524;BME280;56723;42.694;23.286;2023-02-28T10:07:50;95659.38;;;7.47;100.00
69524;BME280;56723;42.694;23.286;2023-02-28T10:10:43;95656.97;;;7.55;100.00
69524;BME280;56723;42.694;23.286;2023-02-28T10:13:36;95647.22;;;7.68;100.00
69524;BME280;56723;42.694;23.286;2023-02-28T10:16:11;95653.25;;;7.88;100.00
69524;BME280;56723;42.694;23.286;2023-02-28T10:23:46;95637.28;;;8.42;100.00
69524;BME280;56723;42.694;23.286;2023-02-28T10:26:17;95640.38;;;8.55;100.00
69524;BME280;56723;42.694;23.286;2023-02-28T10:28:44;95631.28;;;8.71;100.00
69524;BME280;56723;42.694;23.286;2023-02-28T10:31:16;95628.94;;;8.87;100.00
69524;BME280;56723;42.694;23.286;2023-02-28T10:33:45;95619.63;;;9.03;100.00
69524;BME280;56723;42.694;23.286;2023-02-28T10:36:16;95621.63;;;9.19;100.00
69524;BME280;56723;42.694;23.286;2023-02-28T10:38:45;95616.94;;;9.32;100.00
69524;BME280;56723;42.694;23.286;2023-02-28T10:41:13;95602.06;;;9.44;100.00
69524;BME280;56723;42.694;23.286;2023-02-28T10:43:43;95596.09;;;9.61;100.00
69524;BME280;56723;42.694;23.286;2023-02-28T10:46:16;95589.72;;;9.83;99.62
69524;BME280;56723;42.694;23.286;2023-02-28T10:49:05;95588.44;;;10.05;96.65
69524;BME280;56723;42.694;23.286;2023-02-28T10:51:39;95588.41;;;10.32;94.94
69524;BME280;56723;42.694;23.286;2023-02-28T10:54:19;95583.88;;;10.52;92.43
69524;BME280;56723;42.694;23.286;2023-02-28T10:57:22;95582.56;;;10.74;89.98
69524;BME280;56723;42.694;23.286;2023-02-28T10:59:52;95565.94;;;10.85;89.06
69524;BME280;56723;42.694;23.286;2023-02-28T11:02:34;95579.03;;;11.09;87.21
69524;BME280;56723;42.694;23.286;2023-02-28T11:05:02;95557.34;;;11.18;86.75
69524;BME280;56723;42.694;23.286;2023-02-28T11:10:38;95552.88;;;11.36;84.33
69524;BME280;56723;42.694;23.286;2023-02-28T11:13:05;95560.81;;;11.35;82.38
69524;BME280;56723;42.694;23.286;2023-02-28T11:15:33;95565.03;;;11.36;83.11
69524;BME280;56723;42.694;23.286;2023-02-28T11:18:20;95555.16;;;11.39;83.11
69524;BME280;56723;42.694;23.286;2023-02-28T11:20:52;95568.50;;;11.44;82.33
69524;BME280;56723;42.694;23.286;2023-02-28T11:23:21;95556.63;;;11.42;82.56
69524;BME280;56723;42.694;23.286;2023-02-28T11:25:52;95549.63;;;11.34;82.59
69524;BME280;56723;42.694;23.286;2023-02-28T11:33:42;95540.59;;;11.47;82.19
69524;BME280;56723;42.694;23.286;2023-02-28T11:36:17;95538.97;;;11.45;80.93
69524;BME280;56723;42.694;23.286;2023-02-28T11:38:48;95542.69;;;11.51;81.27
69524;BME280;56723;42.694;23.286;2023-02-28T11:41:40;95538.22;;;11.69;79.54
69524;BME280;56723;42.694;23.286;2023-02-28T11:47:12;95546.81;;;11.62;79.21
69524;BME280;56723;42.694;23.286;2023-02-28T11:55:43;95537.41;;;11.61;79.07
69524;BME280;56723;42.694;23.286;2023-02-28T12:01:28;95536.81;;;11.91;78.54
69524;BME280;56723;42.694;23.286;2023-02-28T12:20:09;95516.31;;;11.72;76.59
69524;BME280;56723;42.694;23.286;2023-02-28T12:28:21;95543.34;;;11.87;76.27
69524;BME280;56723;42.694;23.286;2023-02-28T12:30:58;95530.34;;;11.87;76.01
69524;BME280;56723;42.694;23.286;2023-02-28T12:33:33;95532.28;;;11.85;76.37
69524;BME280;56723;42.694;23.286;2023-02-28T12:36:07;95514.94;;;12.02;74.80
69524;BME280;56723;42.694;23.286;2023-02-28T12:38:44;95513.28;;;12.09;73.45
69524;BME280;56723;42.694;23.286;2023-02-28T12:41:14;95506.81;;;11.97;73.94
69524;BME280;56723;42.694;23.286;2023-02-28T12:43:46;95521.56;;;11.96;74.45
69524;BME280;56723;42.694;23.286;2023-02-28T12:46:35;95521.75;;;11.87;74.60
69524;BME280;56723;42.694;23.286;2023-02-28T12:49:26;95523.13;;;11.65;75.20
69524;BME280;56723;42.694;23.286;2023-02-28T12:51:59;95520.31;;;11.42;75.81
69524;BME280;56723;42.694;23.286;2023-02-28T12:59:41;95517.56;;;11.43;76.55
69524;BME280;56723;42.694;23.286;2023-02-28T13:02:38;95513.97;;;11.36;75.95
69524;BME280;56723;42.694;23.286;2023-02-28T13:10:54;95513.91;;;11.20;76.60
69524;BME280;56723;42.694;23.286;2023-02-28T13:13:24;95504.97;;;11.15;76.98
69524;BME280;56723;42.694;23.286;2023-02-28T13:18:39;95501.75;;;11.13;77.38
69524;BME280;56723;42.694;23.286;2023-02-28T13:21:26;95513.53;;;11.07;76.79
69524;BME280;56723;42.694;23.286;2023-02-28T13:24:03;95507.69;;;11.05;77.39
69524;BME280;56723;42.694;23.286;2023-02-28T13:29:01;95507.91;;;11.20;76.73
69524;BME280;56723;42.694;23.286;2023-02-28T13:31:28;95501.09;;;11.19;75.91
69524;BME280;56723;42.694;23.286;2023-02-28T13:36:29;95498.16;;;11.14;76.95
69524;BME280;56723;42.694;23.286;2023-02-28T13:47:48;95488.53;;;10.98;78.17
69524;BME280;56723;42.694;23.286;2023-02-28T13:50:32;95487.91;;;11.04;77.87
69524;BME280;56723;42.694;23.286;2023-02-28T13:56:05;95482.78;;;11.12;77.18
69524;BME280;56723;42.694;23.286;2023-02-28T13:59:01;95486.66;;;11.16;76.90
69524;BME280;56723;42.694;23.286;2023-02-28T14:01:57;95479.53;;;11.10;77.25
69524;BME280;56723;42.694;23.286;2023-02-28T14:04:43;95478.22;;;11.14;77.66
69524;BME280;56723;42.694;23.286;2023-02-28T14:07:28;95477.91;;;11.09;77.54
69524;BME280;56723;42.694;23.286;2023-02-28T14:10:04;95482.38;;;10.99;77.56
69524;BME280;56723;42.694;23.286;2023-02-28T14:15:46;95487.81;;;10.80;78.30
69524;BME280;56723;42.694;23.286;2023-02-28T14:18:24;95490.38;;;10.71;79.50
69524;BME280;56723;42.694;23.286;2023-02-28T14:27:07;95488.81;;;10.53;80.38
69524;BME280;56723;42.694;23.286;2023-02-28T14:32:28;95492.56;;;10.32;81.67
69524;BME280;56723;42.694;23.286;2023-02-28T14:38:05;95493.16;;;10.26;82.50
69524;BME280;56723;42.694;23.286;2023-02-28T14:40:34;95492.97;;;10.20;82.89
69524;BME280;56723;42.694;23.286;2023-02-28T14:43:16;95485.41;;;10.08;83.79
69524;BME280;56723;42.694;23.286;2023-02-28T14:45:49;95486.38;;;10.07;84.29
69524;BME280;56723;42.694;23.286;2023-02-28T14:48:18;95496.34;;;10.02;85.18
69524;BME280;56723;42.694;23.286;2023-02-28T14:50:53;95498.22;;;9.92;85.45
69524;BME280;56723;42.694;23.286;2023-02-28T14:53:22;95489.94;;;9.89;86.03
69524;BME280;56723;42.694;23.286;2023-02-28T14:55:52;95492.16;;;9.84;86.53
69524;BME280;56723;42.694;23.286;2023-02-28T14:58:28;95498.28;;;9.65;88.11
69524;BME280;56723;42.694;23.286;2023-02-28T15:01:01;95499.41;;;9.62;88.46
69524;BME280;56723;42.694;23.286;2023-02-28T15:06:18;95498.81;;;9.51;89.94
69524;BME280;56723;42.694;23.286;2023-02-28T15:08:45;95492.38;;;9.55;90.21
69524;BME280;56723;42.694;23.286;2023-02-28T15:11:15;95494.00;;;9.56;90.29
69524;BME280;56723;42.694;23.286;2023-02-28T15:13:48;95489.13;;;9.53;90.10
69524;BME280;56723;42.694;23.286;2023-02-28T15:16:20;95488.09;;;9.46;90.46
69524;BME280;56723;42.694;23.286;2023-02-28T15:19:00;95491.66;;;9.45;91.03
69524;BME280;56723;42.694;23.286;2023-02-28T15:21:31;95481.59;;;9.42;91.07
69524;BME280;56723;42.694;23.286;2023-02-28T15:24:10;95479.28;;;9.38;91.44
69524;BME280;56723;42.694;23.286;2023-02-28T15:26:43;95494.66;;;9.40;91.28
69524;BME280;56723;42.694;23.286;2023-02-28T15:29:15;95504.47;;;9.36;90.64
69524;BME280;56723;42.694;23.286;2023-02-28T15:31:48;95507.22;;;9.35;91.01
69524;BME280;56723;42.694;23.286;2023-02-28T15:34:35;95514.91;;;9.27;91.51
69524;BME280;56723;42.694;23.286;2023-02-28T15:40:41;95509.75;;;9.17;92.56
69524;BME280;56723;42.694;23.286;2023-02-28T15:43:28;95508.69;;;9.10;93.26
69524;BME280;56723;42.694;23.286;2023-02-28T15:48:54;95509.28;;;9.04;94.25
69524;BME280;56723;42.694;23.286;2023-02-28T15:51:29;95506.31;;;8.99;95.37
69524;BME280;56723;42.694;23.286;2023-02-28T15:54:27;95511.09;;;8.94;94.97
69524;BME280;56723;42.694;23.286;2023-02-28T15:56:57;95508.28;;;8.87;95.20
69524;BME280;56723;42.694;23.286;2023-02-28T15:59:26;95499.19;;;8.83;95.61
69524;BME280;56723;42.694;23.286;2023-02-28T16:02:14;95510.75;;;8.79;96.43
69524;BME280;56723;42.694;23.286;2023-02-28T16:04:58;95515.03;;;8.71;97.79
69524;BME280;56723;42.694;23.286;2023-02-28T16:07:26;95521.97;;;8.70;98.25
69524;BME280;56723;42.694;23.286;2023-02-28T16:09:54;95523.31;;;8.64;100.00
69524;BME280;56723;42.694;23.286;2023-02-28T16:12:25;95529.03;;;8.58;100.00
69524;BME280;56723;42.694;23.286;2023-02-28T16:14:54;95537.38;;;8.52;100.00
69524;BME280;56723;42.694;23.286;2023-02-28T16:17:27;95535.34;;;8.37;100.00
69524;BME280;56723;42.694;23.286;2023-02-28T16:19:55;95549.19;;;8.26;100.00
69524;BME280;56723;42.694;23.286;2023-02-28T16:22:22;95549.34;;;8.15;100.00
69524;BME280;56723;42.694;23.286;2023-02-28T16:24:49;95557.22;;;8.04;100.00
69524;BME280;56723;42.694;23.286;2023-02-28T16:29:44;95553.00;;;7.83;100.00
69524;BME280;56723;42.694;23.286;2023-02-28T16:32:14;95562.00;;;7.79;100.00
69524;BME280;56723;42.694;23.286;2023-02-28T16:34:43;95574.34;;;7.76;100.00
69524;BME280;56723;42.694;23.286;2023-02-28T16:37:13;95580.84;;;7.70;100.00
69524;BME280;56723;42.694;23.286;2023-02-28T16:39:41;95572.53;;;7.57;100.00
69524;BME280;56723;42.694;23.286;2023-02-28T16:42:22;95586.91;;;7.50;100.00
69524;BME280;56723;42.694;23.286;2023-02-28T16:44:49;95586.34;;;7.46;100.00
69524;BME280;56723;42.694;23.286;2023-02-28T16:47:17;95575.34;;;7.35;100.00
69524;BME280;56723;42.694;23.286;2023-02-28T16:49:45;95588.66;;;7.40;100.00
69524;BME280;56723;42.694;23.286;2023-02-28T16:52:14;95588.50;;;7.32;100.00
69524;BME280;56723;42.694;23.286;2023-02-28T16:54:41;95585.91;;;7.32;100.00
69524;BME280;56723;42.694;23.286;2023-02-28T16:57:20;95593.91;;;7.28;100.00
69524;BME280;56723;42.694;23.286;2023-02-28T16:59:49;95589.00;;;7.25;100.00
69524;BME280;56723;42.694;23.286;2023-02-28T17:02:19;95606.22;;;7.25;100.00
69524;BME280;56723;42.694;23.286;2023-02-28T17:04:47;95605.56;;;7.23;100.00
69524;BME280;56723;42.694;23.286;2023-02-28T17:07:15;95590.06;;;7.13;100.00
69524;BME280;56723;42.694;23.286;2023-02-28T17:09:44;95607.16;;;7.14;100.00
69524;BME280;56723;42.694;23.286;2023-02-28T17:12:12;95609.97;;;7.11;100.00
69524;BME280;56723;42.694;23.286;2023-02-28T17:14:39;95601.56;;;7.09;100.00
69524;BME280;56723;42.694;23.286;2023-02-28T17:17:07;95598.41;;;7.06;100.00
69524;BME280;56723;42.694;23.286;2023-02-28T17:19:34;95600.47;;;7.02;100.00
69524;BME280;56723;42.694;23.286;2023-02-28T17:22:02;95593.94;;;6.98;100.00
69524;BME280;56723;42.694;23.286;2023-02-28T17:24:29;95594.31;;;6.93;100.00
69524;BME280;56723;42.694;23.286;2023-02-28T17:26:57;95594.44;;;6.92;100.00
69524;BME280;56723;42.694;23.286;2023-02-28T17:29:24;95589.25;;;6.82;100.00
69524;BME280;56723;42.694;23.286;2023-02-28T17:31:51;95595.47;;;6.80;100.00
69524;BME280;56723;42.694;23.286;2023-02-28T17:34:19;95599.94;;;6.78;100.00
69524;BME280;56723;42.694;23.286;2023-02-28T17:36:50;95607.22;;;6.73;100.00
69524;BME280;56723;42.694;23.286;2023-02-28T17:39:19;95594.19;;;6.65;100.00
69524;BME280;56723;42.694;23.286;2023-02-28T17:41:54;95601.81;;;6.55;100.00
69524;BME280;56723;42.694;23.286;2023-02-28T17:44:23;95595.44;;;6.49;100.00
69524;BME280;56723;42.694;23.286;2023-02-28T17:46:51;95592.41;;;6.44;100.00
69524;BME280;56723;42.694;23.286;2023-02-28T17:49:19;95587.06;;;6.36;100.00
69524;BME280;56723;42.694;23.286;2023-02-28T17:51:47;95599.00;;;6.37;100.00
69524;BME280;56723;42.694;23.286;2023-02-28T17:54:14;95600.88;;;6.35;100.00
69524;BME280;56723;42.694;23.286;2023-02-28T17:56:43;95604.53;;;6.33;100.00
69524;BME280;56723;42.694;23.286;2023-02-28T17:59:11;95587.59;;;6.30;100.00
69524;BME280;56723;42.694;23.286;2023-02-28T18:01:39;95591.59;;;6.23;100.00
69524;BME280;56723;42.694;23.286;2023-02-28T18:04:06;95589.84;;;6.23;100.00
69524;BME280;56723;42.694;23.286;2023-02-28T18:06:38;95591.16;;;6.18;100.00
69524;BME280;56723;42.694;23.286;2023-02-28T18:09:14;95591.66;;;6.12;100.00
69524;BME280;56723;42.694;23.286;2023-02-28T18:11:43;95592.84;;;6.08;100.00
69524;BME280;56723;42.694;23.286;2023-02-28T18:14:15;95592.16;;;6.06;100.00
69524;BME280;56723;42.694;23.286;2023-02-28T18:16:43;95603.25;;;6.06;100.00
69524;BME280;56723;42.694;23.286;2023-02-28T18:19:12;95603.13;;;6.08;100.00
69524;BME280;56723;42.694;23.286;2023-02-28T18:21:44;95605.94;;;6.05;100.00
69524;BME280;56723;42.694;23.286;2023-02-28T18:24:12;95601.84;;;6.02;100.00
69524;BME280;56723;42.694;23.286;2023-02-28T18:26:40;95602.69;;;6.03;100.00
69524;BME280;56723;42.694;23.286;2023-02-28T18:29:08;95604.06;;;6.07;100.00
69524;BME280;56723;42.694;23.286;2023-02-28T18:31:41;95613.31;;;6.09;100.00
69524;BME280;56723;42.694;23.286;2023-02-28T18:34:09;95617.63;;;6.09;100.00
69524;BME280;56723;42.694;23.286;2023-02-28T18:36:35;95599.16;;;6.04;100.00
69524;BME280;56723;42.694;23.286;2023-02-28T18:39:02;95600.56;;;6.08;100.00
69524;BME280;56723;42.694;23.286;2023-02-28T18:41:29;95597.75;;;6.11;100.00
69524;BME280;56723;42.694;23.286;2023-02-28T18:43:56;95607.22;;;6.10;100.00
69524;BME280;56723;42.694;23.286;2023-02-28T18:46:25;95616.00;;;6.08;100.00
69524;BME280;56723;42.694;23.286;2023-02-28T18:48:52;95621.13;;;6.08;100.00
69524;BME280;56723;42.694;23.286;2023-02-28T18:51:22;95617.75;;;6.07;100.00
69524;BME280;56723;42.694;23.286;2023-02-28T18:53:50;95616.47;;;6.02;100.00
69524;BME280;56723;42.694;23.286;2023-02-28T18:56:19;95617.06;;;6.05;100.00
69524;BME280;56723;42.694;23.286;2023-02-28T18:58:46;95620.69;;;6.03;100.00
69524;BME280;56723;42.694;23.286;2023-02-28T19:03:47;95620.56;;;6.04;100.00
69524;BME280;56723;42.694;23.286;2023-02-28T19:06:15;95621.75;;;6.00;100.00
69524;BME280;56723;42.694;23.286;2023-02-28T19:08:42;95627.47;;;6.04;100.00
69524;BME280;56723;42.694;23.286;2023-02-28T19:11:12;95625.13;;;6.01;100.00
69524;BME280;56723;42.694;23.286;2023-02-28T19:13:39;95621.75;;;6.00;100.00
69524;BME280;56723;42.694;23.286;2023-02-28T19:16:07;95624.06;;;6.03;100.00
69524;BME280;56723;42.694;23.286;2023-02-28T19:18:35;95621.50;;;6.03;100.00
69524;BME280;56723;42.694;23.286;2023-02-28T19:21:05;95618.09;;;6.03;100.00
69524;BME280;56723;42.694;23.286;2023-02-28T19:23:32;95619.03;;;6.02;100.00
69524;BME280;56723;42.694;23.286;2023-02-28T19:25:59;95621.75;;;6.00;100.00
69524;BME280;56723;42.694;23.286;2023-02-28T19:28:29;95619.28;;;5.99;100.00
69524;BME280;56723;42.694;23.286;2023-02-28T19:30:56;95612.38;;;5.99;100.00
69524;BME280;56723;42.694;23.286;2023-02-28T19:33:23;95612.50;;;5.98;100.00
69524;BME280;56723;42.694;23.286;2023-02-28T19:35:50;95612.63;;;5.96;100.00
69524;BME280;56723;42.694;23.286;2023-02-28T19:38:17;95623.72;;;5.97;100.00
69524;BME280;56723;42.694;23.286;2023-02-28T19:40:44;95625.38;;;5.98;100.00
69524;BME280;56723;42.694;23.286;2023-02-28T19:43:11;95615.31;;;5.95;100.00
69524;BME280;56723;42.694;23.286;2023-02-28T19:45:38;95625.59;;;5.95;100.00
69524;BME280;56723;42.694;23.286;2023-02-28T19:48:05;95628.06;;;5.96;100.00
69524;BME280;56723;42.694;23.286;2023-02-28T19:50:31;95621.56;;;5.92;100.00
69524;BME280;56723;42.694;23.286;2023-02-28T19:52:58;95619.78;;;5.93;100.00
69524;BME280;56723;42.694;23.286;2023-02-28T19:55:26;95616.41;;;5.92;100.00
69524;BME280;56723;42.694;23.286;2023-02-28T19:57:53;95616.97;;;5.96;100.00
69524;BME280;56723;42.694;23.286;2023-02-28T20:00:20;95620.47;;;5.95;100.00
69524;BME280;56723;42.694;23.286;2023-02-28T20:02:47;95618.03;;;5.93;100.00
69524;BME280;56723;42.694;23.286;2023-02-28T20:05:14;95608.13;;;5.88;100.00
69524;BME280;56723;42.694;23.286;2023-02-28T20:07:41;95598.72;;;5.87;100.00
69524;BME280;56723;42.694;23.286;2023-02-28T20:10:08;95600.59;;;5.85;100.00
69524;BME280;56723;42.694;23.286;2023-02-28T20:12:35;95608.56;;;5.82;100.00
69524;BME280;56723;42.694;23.286;2023-02-28T20:15:03;95611.13;;;5.82;100.00
69524;BME280;56723;42.694;23.286;2023-02-28T20:17:30;95626.56;;;5.82;100.00
69524;BME280;56723;42.694;23.286;2023-02-28T20:19:57;95608.91;;;5.78;100.00
69524;BME280;56723;42.694;23.286;2023-02-28T20:22:24;95609.72;;;5.78;100.00
69524;BME280;56723;42.694;23.286;2023-02-28T20:24:51;95621.53;;;5.81;100.00
69524;BME280;56723;42.694;23.286;2023-02-28T20:27:19;95619.78;;;5.81;100.00
69524;BME280;56723;42.694;23.286;2023-02-28T20:29:46;95616.28;;;5.82;100.00
69524;BME280;56723;42.694;23.286;2023-02-28T20:32:13;95621.41;;;5.82;100.00
69524;BME280;56723;42.694;23.286;2023-02-28T20:34:40;95614.63;;;5.81;100.00
69524;BME280;56723;42.694;23.286;2023-02-28T20:37:07;95609.72;;;5.78;100.00
69524;BME280;56723;42.694;23.286;2023-02-28T20:39:34;95614.88;;;5.78;100.00
69524;BME280;56723;42.694;23.286;2023-02-28T20:42:01;95621.19;;;5.85;100.00
69524;BME280;56723;42.694;23.286;2023-02-28T20:44:28;95607.50;;;5.85;100.00
69524;BME280;56723;42.694;23.286;2023-02-28T20:46:55;95616.03;;;5.85;100.00
69524;BME280;56723;42.694;23.286;2023-02-28T20:49:22;95621.19;;;5.85;100.00
69524;BME280;56723;42.694;23.286;2023-02-28T20:51:49;95628.19;;;5.83;100.00
69524;BME280;56723;42.694;23.286;2023-02-28T20:54:16;95613.59;;;5.84;100.00
69524;BME280;56723;42.694;23.286;2023-02-28T20:56:43;95626.31;;;5.85;100.00
69524;BME280;56723;42.694;23.286;2023-02-28T20:59:10;95625.25;;;5.88;100.00
69524;BME280;56723;42.694;23.286;2023-02-28T21:01:38;95627.13;;;5.86;100.00
69524;BME280;56723;42.694;23.286;2023-02-28T21:04:06;95626.94;;;5.89;100.00
69524;BME280;56723;42.694;23.286;2023-02-28T21:06:38;95632.06;;;5.89;100.00
69524;BME280;56723;42.694;23.286;2023-02-28T21:09:07;95631.13;;;5.90;100.00
69524;BME280;56723;42.694;23.286;2023-02-28T21:11:36;95626.13;;;5.88;100.00
69524;BME280;56723;42.694;23.286;2023-02-28T21:14:06;95626.13;;;5.88;100.00
69524;BME280;56723;42.694;23.286;2023-02-28T21:16:33;95628.56;;;5.90;100.00
69524;BME280;56723;42.694;23.286;2023-02-28T21:19:03;95631.84;;;5.92;100.00
69524;BME280;56723;42.694;23.286;2023-02-28T21:21:36;95634.28;;;5.94;100.00
69524;BME280;56723;42.694;23.286;2023-02-28T21:24:05;95627.38;;;5.94;100.00
69524;BME280;56723;42.694;23.286;2023-02-28T21:26:32;95630.75;;;5.95;100.00
69524;BME280;56723;42.694;23.286;2023-02-28T21:29:00;95623.19;;;5.93;100.00
69524;BME280;56723;42.694;23.286;2023-02-28T21:31:30;95627.25;;;5.96;100.00
69524;BME280;56723;42.694;23.286;2023-02-28T21:33:58;95621.28;;;5.95;100.00
69524;BME280;56723;42.694;23.286;2023-02-28T21:36:29;95624.00;;;5.94;100.00
69524;BME280;56723;42.694;23.286;2023-02-28T21:39:11;95619.41;;;5.97;100.00
69524;BME280;56723;42.694;23.286;2023-02-28T21:41:39;95622.09;;;5.96;100.00
69524;BME280;56723;42.694;23.286;2023-02-28T21:44:09;95615.31;;;5.95;100.00
69524;BME280;56723;42.694;23.286;2023-02-28T21:46:37;95621.28;;;5.95;100.00
69524;BME280;56723;42.694;23.286;2023-02-28T21:49:04;95608.31;;;5.97;100.00
69524;BME280;56723;42.694;23.286;2023-02-28T21:51:31;95614.38;;;5.96;100.00
69524;BME280;56723;42.694;23.286;2023-02-28T21:53:59;95607.38;;;5.98;100.00
69524;BME280;56723;42.694;23.286;2023-02-28T21:56:29;95615.91;;;5.98;100.00
69524;BME280;56723;42.694;23.286;2023-02-28T21:58:57;95618.59;;;5.97;100.00
69524;BME280;56723;42.694;23.286;2023-02-28T22:01:38;95619.66;;;5.94;100.00
69524;BME280;56723;42.694;23.286;2023-02-28T22:04:08;95623.53;;;5.88;100.00
69524;BME280;56723;42.694;23.286;2023-02-28T22:06:38;95623.06;;;5.83;100.00
69524;BME280;56723;42.694;23.286;2023-02-28T22:09:06;95626.91;;;5.78;100.00
69524;BME280;56723;42.694;23.286;2023-02-28T22:11:35;95620.25;;;5.75;100.00
69524;BME280;56723;42.694;23.286;2023-02-28T22:14:03;95623.91;;;5.73;100.00
69524;BME280;56723;42.694;23.286;2023-02-28T22:16:31;95625.19;;;5.67;100.00